sensor_id;sensor_type;location;lat;lon;timestamp;pressure;altitude;pressure_sealevel;temperature;humidity
75699;BME280;64313;51.018;13.742;2023-09-19T00:01:22;98982.16;;;18.30;82.25
75699;BME280;64313;51.018;13.742;2023-09-19T00:03:48;98980.50;;;18.29;82.43
75699;BME280;64313;51.018;13.742;2023-09-19T00:06:13;98977.53;;;18.25;82.46
75699;BME280;64313;51.018;13.742;2023-09-19T00:08:41;98979.69;;;18.23;82.29
75699;BME280;64313;51.018;13.742;2023-09-19T00:11:10;98983.50;;;18.22;81.94
75699;BME280;64313;51.018;13.742;2023-09-19T00:13:36;98973.19;;;18.19;82.26
75699;BME280;64313;51.018;13.742;2023-09-19T00:16:08;98976.19;;;18.17;82.08
75699;BME280;64313;51.018;13.742;2023-09-19T00:18:33;98976.97;;;18.13;82.04
75699;BME280;64313;51.018;13.742;2023-09-19T00:21:00;98978.59;;;18.14;81.91
75699;BME280;64313;51.018;13.742;2023-09-19T00:23:26;98975.88;;;18.09;82.43
75699;BME280;64313;51.018;13.742;2023-09-19T00:25:52;98978.06;;;18.07;82.12
75699;BME280;64313;51.018;13.742;2023-09-19T00:28:18;98973.16;;;18.04;82.73
75699;BME280;64313;51.018;13.742;2023-09-19T00:30:45;98963.69;;;18.01;83.05
75699;BME280;64313;51.018;13.742;2023-09-19T00:33:15;98963.66;;;17.96;82.64
75699;BME280;64313;51.018;13.742;2023-09-19T00:35:54;98964.47;;;17.97;82.88
75699;BME280;64313;51.018;13.742;2023-09-19T00:38:20;98959.88;;;17.92;83.20
75699;BME280;64313;51.018;13.742;2023-09-19T00:40:48;98962.31;;;17.93;82.50
75699;BME280;64313;51.018;13.742;2023-09-19T00:43:14;98959.06;;;17.91;82.72
75699;BME280;64313;51.018;13.742;2023-09-19T00:45:45;98951.22;;;17.90;82.59
75699;BME280;64313;51.018;13.742;2023-09-19T00:48:14;98952.84;;;17.91;82.96
75699;BME280;64313;51.018;13.742;2023-09-19T00:50:42;98955.00;;;17.89;83.16
75699;BME280;64313;51.018;13.742;2023-09-19T00:53:08;98956.09;;;17.88;83.38
75699;BME280;64313;51.018;13.742;2023-09-19T00:55:36;98963.09;;;17.89;83.58
75699;BME280;64313;51.018;13.742;2023-09-19T00:58:02;98945.53;;;17.86;83.73
75699;BME280;64313;51.018;13.742;2023-09-19T01:00:28;98952.81;;;17.86;84.08
75699;BME280;64313;51.018;13.742;2023-09-19T01:02:54;98954.72;;;17.85;84.04
75699;BME280;64313;51.018;13.742;2023-09-19T01:05:20;98952.56;;;17.82;84.02
75699;BME280;64313;51.018;13.742;2023-09-19T01:07:46;98964.19;;;17.83;84.28
75699;BME280;64313;51.018;13.742;2023-09-19T01:10:17;98959.88;;;17.82;84.45
75699;BME280;64313;51.018;13.742;2023-09-19T01:18:21;98969.78;;;17.76;83.76
75699;BME280;64313;51.018;13.742;2023-09-19T01:21:28;98976.03;;;17.77;83.93
75699;BME280;64313;51.018;13.742;2023-09-19T01:24:07;98989.56;;;17.77;84.59
75699;BME280;64313;51.018;13.742;2023-09-19T01:29:42;98980.06;;;17.74;84.76
75699;BME280;64313;51.018;13.742;2023-09-19T01:32:10;98975.19;;;17.71;85.19
75699;BME280;64313;51.018;13.742;2023-09-19T01:34:55;98975.47;;;17.69;85.00
75699;BME280;64313;51.018;13.742;2023-09-19T01:37:29;98983.81;;;17.68;84.89
75699;BME280;64313;51.018;13.742;2023-09-19T01:40:02;98981.13;;;17.68;85.54
75699;BME280;64313;51.018;13.742;2023-09-19T01:42:38;98981.38;;;17.66;85.30
75699;BME280;64313;51.018;13.742;2023-09-19T01:50:26;98983.78;;;17.63;86.19
75699;BME280;64313;51.018;13.742;2023-09-19T01:52:59;98968.13;;;17.60;85.90
75699;BME280;64313;51.018;13.742;2023-09-19T01:55:36;98976.22;;;17.60;86.17
75699;BME280;64313;51.018;13.742;2023-09-19T01:58:15;98978.94;;;17.60;86.22
75699;BME280;64313;51.018;13.742;2023-09-19T02:00:43;98977.81;;;17.56;86.53
75699;BME280;64313;51.018;13.742;2023-09-19T02:03:11;98999.72;;;17.54;86.85
75699;BME280;64313;51.018;13.742;2023-09-19T02:05:40;98997.25;;;17.52;87.14
75699;BME280;64313;51.018;13.742;2023-09-19T02:08:05;99002.66;;;17.52;86.82
75699;BME280;64313;51.018;13.742;2023-09-19T02:10:31;98989.69;;;17.49;86.93
75699;BME280;64313;51.018;13.742;2023-09-19T02:12:57;98991.84;;;17.47;87.16
75699;BME280;64313;51.018;13.742;2023-09-19T02:15:24;98985.06;;;17.45;86.81
75699;BME280;64313;51.018;13.742;2023-09-19T02:17:49;98999.38;;;17.45;86.92
75699;BME280;64313;51.018;13.742;2023-09-19T02:20:15;98996.97;;;17.44;86.90
75699;BME280;64313;51.018;13.742;2023-09-19T02:22:42;98996.13;;;17.43;86.55
75699;BME280;64313;51.018;13.742;2023-09-19T02:25:09;98996.66;;;17.40;86.57
75699;BME280;64313;51.018;13.742;2023-09-19T02:27:35;98997.75;;;17.39;86.79
75699;BME280;64313;51.018;13.742;2023-09-19T02:30:01;98998.28;;;17.36;85.98
75699;BME280;64313;51.018;13.742;2023-09-19T02:32:30;99004.72;;;17.35;85.12
75699;BME280;64313;51.018;13.742;2023-09-19T02:34:57;99010.13;;;17.35;85.01
75699;BME280;64313;51.018;13.742;2023-09-19T02:37:23;99009.06;;;17.36;84.68
75699;BME280;64313;51.018;13.742;2023-09-19T02:39:48;99008.00;;;17.37;85.94
75699;BME280;64313;51.018;13.742;2023-09-19T02:42:14;99006.88;;;17.33;86.77
75699;BME280;64313;51.018;13.742;2023-09-19T02:44:40;99014.69;;;17.29;86.13
75699;BME280;64313;51.018;13.742;2023-09-19T02:47:05;99023.59;;;17.30;85.35
75699;BME280;64313;51.018;13.742;2023-09-19T02:49:33;99012.81;;;17.30;85.02
75699;BME280;64313;51.018;13.742;2023-09-19T02:51:58;99015.50;;;17.30;83.39
75699;BME280;64313;51.018;13.742;2023-09-19T02:54:24;99014.16;;;17.33;83.30
75699;BME280;64313;51.018;13.742;2023-09-19T02:56:49;99010.13;;;17.35;83.15
75699;BME280;64313;51.018;13.742;2023-09-19T02:59:15;99005.84;;;17.39;83.64
75699;BME280;64313;51.018;13.742;2023-09-19T03:01:43;99009.91;;;17.42;82.39
75699;BME280;64313;51.018;13.742;2023-09-19T03:04:09;99009.38;;;17.45;82.34
75699;BME280;64313;51.018;13.742;2023-09-19T03:06:37;99018.84;;;17.47;82.22
75699;BME280;64313;51.018;13.742;2023-09-19T03:09:04;99021.03;;;17.50;82.44
75699;BME280;64313;51.018;13.742;2023-09-19T03:11:38;99033.47;;;17.51;81.46
75699;BME280;64313;51.018;13.742;2023-09-19T03:14:05;99031.31;;;17.53;81.12
75699;BME280;64313;51.018;13.742;2023-09-19T03:16:32;99038.06;;;17.56;81.82
75699;BME280;64313;51.018;13.742;2023-09-19T03:18:59;99045.13;;;17.57;81.64
75699;BME280;64313;51.018;13.742;2023-09-19T03:21:26;99042.16;;;17.59;80.80
75699;BME280;64313;51.018;13.742;2023-09-19T03:23:51;99048.09;;;17.61;81.75
75699;BME280;64313;51.018;13.742;2023-09-19T03:26:17;99046.22;;;17.61;82.06
75699;BME280;64313;51.018;13.742;2023-09-19T03:28:44;99054.31;;;17.61;82.52
75699;BME280;64313;51.018;13.742;2023-09-19T03:31:11;99060.56;;;17.62;81.33
75699;BME280;64313;51.018;13.742;2023-09-19T03:33:39;99051.38;;;17.63;80.72
75699;BME280;64313;51.018;13.742;2023-09-19T03:36:05;99051.38;;;17.63;81.02
75699;BME280;64313;51.018;13.742;2023-09-19T03:38:31;99051.38;;;17.63;81.08
75699;BME280;64313;51.018;13.742;2023-09-19T03:40:58;99041.38;;;17.63;80.99
75699;BME280;64313;51.018;13.742;2023-09-19T03:43:23;99031.34;;;17.64;80.35
75699;BME280;64313;51.018;13.742;2023-09-19T03:45:49;99034.06;;;17.64;80.05
75699;BME280;64313;51.018;13.742;2023-09-19T03:48:17;99043.00;;;17.64;80.02
75699;BME280;64313;51.018;13.742;2023-09-19T03:50:43;99034.06;;;17.64;80.69
75699;BME280;64313;51.018;13.742;2023-09-19T03:53:11;99044.88;;;17.64;79.86
75699;BME280;64313;51.018;13.742;2023-09-19T03:55:40;99045.72;;;17.64;80.52
75699;BME280;64313;51.018;13.742;2023-09-19T03:58:06;99046.53;;;17.65;80.38
75699;BME280;64313;51.018;13.742;2023-09-19T04:00:31;99039.47;;;17.64;80.71
75699;BME280;64313;51.018;13.742;2023-09-19T04:02:58;99041.38;;;17.63;80.52
75699;BME280;64313;51.018;13.742;2023-09-19T04:05:24;99045.97;;;17.63;81.41
75699;BME280;64313;51.018;13.742;2023-09-19T04:07:49;99047.84;;;17.62;80.24
75699;BME280;64313;51.018;13.742;2023-09-19T04:10:19;99057.88;;;17.62;80.23
75699;BME280;64313;51.018;13.742;2023-09-19T04:12:53;99063.25;;;17.62;79.81
75699;BME280;64313;51.018;13.742;2023-09-19T04:15:18;99053.50;;;17.61;79.63
75699;BME280;64313;51.018;13.742;2023-09-19T04:17:44;99065.97;;;17.62;79.73
75699;BME280;64313;51.018;13.742;2023-09-19T04:20:10;99062.19;;;17.63;80.11
75699;BME280;64313;51.018;13.742;2023-09-19T04:22:38;99067.03;;;17.61;79.90
75699;BME280;64313;51.018;13.742;2023-09-19T04:25:04;99068.13;;;17.60;79.87
75699;BME280;64313;51.018;13.742;2023-09-19T04:27:32;99071.88;;;17.59;80.16
75699;BME280;64313;51.018;13.742;2023-09-19T04:29:58;99071.88;;;17.59;79.43
75699;BME280;64313;51.018;13.742;2023-09-19T04:32:27;99075.41;;;17.59;79.76
75699;BME280;64313;51.018;13.742;2023-09-19T04:34:53;99071.88;;;17.59;79.91
75699;BME280;64313;51.018;13.742;2023-09-19T04:37:19;99063.25;;;17.57;80.11
75699;BME280;64313;51.018;13.742;2023-09-19T04:39:44;99063.50;;;17.55;79.99
75699;BME280;64313;51.018;13.742;2023-09-19T04:42:13;99075.91;;;17.56;79.26
75699;BME280;64313;51.018;13.742;2023-09-19T04:44:39;99085.09;;;17.55;79.75
75699;BME280;64313;51.018;13.742;2023-09-19T04:47:05;99087.00;;;17.55;78.80
75699;BME280;64313;51.018;13.742;2023-09-19T04:49:31;99100.50;;;17.55;79.13
75699;BME280;64313;51.018;13.742;2023-09-19T04:51:56;99102.13;;;17.56;79.72
75699;BME280;64313;51.018;13.742;2023-09-19T04:54:22;99095.09;;;17.55;79.29
75699;BME280;64313;51.018;13.742;2023-09-19T04:56:48;99092.41;;;17.55;79.89
75699;BME280;64313;51.018;13.742;2023-09-19T04:59:13;99100.50;;;17.55;79.41
75699;BME280;64313;51.018;13.742;2023-09-19T05:01:40;99094.31;;;17.54;79.51
75699;BME280;64313;51.018;13.742;2023-09-19T05:04:07;99093.47;;;17.53;79.54
75699;BME280;64313;51.018;13.742;2023-09-19T05:06:32;99101.56;;;17.53;79.63
75699;BME280;64313;51.018;13.742;2023-09-19T05:08:58;99105.34;;;17.52;79.25
75699;BME280;64313;51.018;13.742;2023-09-19T05:11:25;99104.53;;;17.52;79.18
75699;BME280;64313;51.018;13.742;2023-09-19T05:13:51;99102.66;;;17.52;78.73
75699;BME280;64313;51.018;13.742;2023-09-19T05:16:18;99117.25;;;17.51;78.63
75699;BME280;64313;51.018;13.742;2023-09-19T05:18:43;99124.28;;;17.52;78.99
75699;BME280;64313;51.018;13.742;2023-09-19T05:21:09;99128.88;;;17.52;78.69
75699;BME280;64313;51.018;13.742;2023-09-19T05:23:34;99129.44;;;17.54;78.51
75699;BME280;64313;51.018;13.742;2023-09-19T05:26:00;99133.19;;;17.53;78.08
75699;BME280;64313;51.018;13.742;2023-09-19T05:28:25;99135.88;;;17.53;78.57
75699;BME280;64313;51.018;13.742;2023-09-19T05:30:52;99143.19;;;17.52;78.49
75699;BME280;64313;51.018;13.742;2023-09-19T05:33:19;99142.09;;;17.53;78.17
75699;BME280;64313;51.018;13.742;2023-09-19T05:35:44;99138.34;;;17.55;78.01
75699;BME280;64313;51.018;13.742;2023-09-19T05:38:13;99146.44;;;17.55;78.13
75699;BME280;64313;51.018;13.742;2023-09-19T05:40:39;99143.47;;;17.56;78.74
75699;BME280;64313;51.018;13.742;2023-09-19T05:43:07;99140.78;;;17.56;78.88
75699;BME280;64313;51.018;13.742;2023-09-19T05:45:33;99148.63;;;17.58;78.33
75699;BME280;64313;51.018;13.742;2023-09-19T05:48:08;99150.25;;;17.59;78.33
75699;BME280;64313;51.018;13.742;2023-09-19T05:50:33;99144.84;;;17.59;78.00
75699;BME280;64313;51.018;13.742;2023-09-19T05:52:59;99145.69;;;17.59;77.89
75699;BME280;64313;51.018;13.742;2023-09-19T05:55:24;99161.63;;;17.61;78.08
75699;BME280;64313;51.018;13.742;2023-09-19T05:57:51;99157.03;;;17.61;77.60
75699;BME280;64313;51.018;13.742;2023-09-19T06:00:20;99154.31;;;17.61;77.66
75699;BME280;64313;51.018;13.742;2023-09-19T06:02:58;99163.78;;;17.64;77.70
75699;BME280;64313;51.018;13.742;2023-09-19T06:05:25;99162.75;;;17.65;77.65
75699;BME280;64313;51.018;13.742;2023-09-19T06:07:52;99153.53;;;17.66;76.88
75699;BME280;64313;51.018;13.742;2023-09-19T06:10:17;99166.81;;;17.67;77.81
75699;BME280;64313;51.018;13.742;2023-09-19T06:12:43;99165.72;;;17.68;77.22
75699;BME280;64313;51.018;13.742;2023-09-19T06:15:15;99170.63;;;17.71;77.70
75699;BME280;64313;51.018;13.742;2023-09-19T06:17:42;99165.75;;;17.73;77.52
75699;BME280;64313;51.018;13.742;2023-09-19T06:20:08;99179.03;;;17.75;76.59
75699;BME280;64313;51.018;13.742;2023-09-19T06:22:42;99183.09;;;17.78;76.61
75699;BME280;64313;51.018;13.742;2023-09-19T06:25:13;99183.69;;;17.80;76.58
75699;BME280;64313;51.018;13.742;2023-09-19T06:27:41;99182.63;;;17.81;76.27
75699;BME280;64313;51.018;13.742;2023-09-19T06:30:10;99199.63;;;17.81;75.17
75699;BME280;64313;51.018;13.742;2023-09-19T06:32:36;99201.84;;;17.84;76.18
75699;BME280;64313;51.018;13.742;2023-09-19T06:35:02;99201.84;;;17.84;76.34
75699;BME280;64313;51.018;13.742;2023-09-19T06:37:33;99216.19;;;17.85;76.69
75699;BME280;64313;51.018;13.742;2023-09-19T06:39:59;99215.91;;;17.86;76.85
75699;BME280;64313;51.018;13.742;2023-09-19T06:42:28;99223.75;;;17.88;76.60
75699;BME280;64313;51.018;13.742;2023-09-19T06:44:53;99221.63;;;17.90;76.35
75699;BME280;64313;51.018;13.742;2023-09-19T06:47:19;99221.66;;;17.95;77.89
75699;BME280;64313;51.018;13.742;2023-09-19T06:49:44;99224.16;;;18.02;78.10
75699;BME280;64313;51.018;13.742;2023-09-19T06:52:10;99230.66;;;18.06;76.28
75699;BME280;64313;51.018;13.742;2023-09-19T06:54:35;99235.28;;;18.10;75.92
75699;BME280;64313;51.018;13.742;2023-09-19T06:57:02;99244.00;;;18.17;75.62
75699;BME280;64313;51.018;13.742;2023-09-19T06:59:28;99242.13;;;18.23;75.23
75699;BME280;64313;51.018;13.742;2023-09-19T07:01:53;99247.03;;;18.31;74.89
75699;BME280;64313;51.018;13.742;2023-09-19T07:04:19;99246.56;;;18.40;75.43
75699;BME280;64313;51.018;13.742;2023-09-19T07:06:49;99243.34;;;18.48;74.35
75699;BME280;64313;51.018;13.742;2023-09-19T07:09:15;99252.59;;;18.57;73.56
75699;BME280;64313;51.018;13.742;2023-09-19T07:11:41;99259.13;;;18.66;73.32
75699;BME280;64313;51.018;13.742;2023-09-19T07:14:06;99262.16;;;18.70;72.76
75699;BME280;64313;51.018;13.742;2023-09-19T07:16:35;99263.22;;;18.74;72.98
75699;BME280;64313;51.018;13.742;2023-09-19T07:19:01;99265.44;;;18.77;71.80
75699;BME280;64313;51.018;13.742;2023-09-19T07:21:27;99261.38;;;18.79;72.10
75699;BME280;64313;51.018;13.742;2023-09-19T07:24:01;99272.25;;;18.85;72.50
75699;BME280;64313;51.018;13.742;2023-09-19T07:29:43;99282.03;;;18.96;70.39
75699;BME280;64313;51.018;13.742;2023-09-19T07:32:08;99286.66;;;18.95;68.79
75699;BME280;64313;51.018;13.742;2023-09-19T07:34:35;99288.53;;;18.95;68.13
75699;BME280;64313;51.018;13.742;2023-09-19T07:37:00;99296.13;;;18.93;66.89
75699;BME280;64313;51.018;13.742;2023-09-19T07:39:26;99293.91;;;18.90;66.86
75699;BME280;64313;51.018;13.742;2023-09-19T07:41:51;99300.69;;;18.87;67.35
75699;BME280;64313;51.018;13.742;2023-09-19T07:44:17;99295.81;;;18.89;68.51
75699;BME280;64313;51.018;13.742;2023-09-19T07:46:42;99300.19;;;18.90;68.31
75699;BME280;64313;51.018;13.742;2023-09-19T07:49:09;99296.16;;;18.98;69.57
75699;BME280;64313;51.018;13.742;2023-09-19T07:51:35;99306.72;;;19.05;66.71
75699;BME280;64313;51.018;13.742;2023-09-19T07:54:01;99305.69;;;19.11;66.16
75699;BME280;64313;51.018;13.742;2023-09-19T07:56:26;99310.31;;;19.20;66.07
75699;BME280;64313;51.018;13.742;2023-09-19T07:58:52;99312.50;;;19.29;64.68
75699;BME280;64313;51.018;13.742;2023-09-19T08:01:18;99318.50;;;19.36;63.82
75699;BME280;64313;51.018;13.742;2023-09-19T08:03:43;99318.22;;;19.42;62.98
75699;BME280;64313;51.018;13.742;2023-09-19T08:06:10;99300.09;;;19.48;63.60
75699;BME280;64313;51.018;13.742;2023-09-19T08:08:36;99302.81;;;19.53;62.30
75699;BME280;64313;51.018;13.742;2023-09-19T08:11:05;99301.72;;;19.59;62.12
75699;BME280;64313;51.018;13.742;2023-09-19T08:13:37;99309.88;;;19.64;61.47
75699;BME280;64313;51.018;13.742;2023-09-19T08:16:03;99308.28;;;19.69;60.67
75699;BME280;64313;51.018;13.742;2023-09-19T08:18:29;99309.91;;;19.75;59.97
75699;BME280;64313;51.018;13.742;2023-09-19T08:20:55;99307.50;;;19.78;58.68
75699;BME280;64313;51.018;13.742;2023-09-19T08:23:23;99314.53;;;19.84;59.86
75699;BME280;64313;51.018;13.742;2023-09-19T08:25:50;99316.44;;;19.89;59.57
75699;BME280;64313;51.018;13.742;2023-09-19T08:28:15;99323.50;;;19.90;59.32
75699;BME280;64313;51.018;13.742;2023-09-19T08:30:45;99319.72;;;19.91;58.63
75699;BME280;64313;51.018;13.742;2023-09-19T08:33:11;99321.88;;;19.94;59.75
75699;BME280;64313;51.018;13.742;2023-09-19T08:35:37;99318.06;;;20.00;60.49
75699;BME280;64313;51.018;13.742;2023-09-19T08:38:05;99326.50;;;20.09;60.37
75699;BME280;64313;51.018;13.742;2023-09-19T08:40:32;99315.91;;;20.13;59.79
75699;BME280;64313;51.018;13.742;2023-09-19T08:42:59;99325.69;;;20.19;60.27
75699;BME280;64313;51.018;13.742;2023-09-19T08:45:28;99324.31;;;20.26;59.84
75699;BME280;64313;51.018;13.742;2023-09-19T08:48:22;99332.16;;;20.33;60.46
75699;BME280;64313;51.018;13.742;2023-09-19T08:50:52;99326.19;;;20.41;59.48
75699;BME280;64313;51.018;13.742;2023-09-19T08:53:31;99332.16;;;20.43;59.70
75699;BME280;64313;51.018;13.742;2023-09-19T08:56:01;99339.22;;;20.44;58.76
75699;BME280;64313;51.018;13.742;2023-09-19T08:58:31;99334.06;;;20.48;59.31
75699;BME280;64313;51.018;13.742;2023-09-19T09:01:00;99339.75;;;20.51;58.58
75699;BME280;64313;51.018;13.742;2023-09-19T09:03:30;99346.28;;;20.56;58.90
75699;BME280;64313;51.018;13.742;2023-09-19T09:05:57;99341.97;;;20.55;58.82
75699;BME280;64313;51.018;13.742;2023-09-19T09:08:23;99335.97;;;20.58;58.66
75699;BME280;64313;51.018;13.742;2023-09-19T09:10:50;99340.59;;;20.62;58.91
75699;BME280;64313;51.018;13.742;2023-09-19T09:13:16;99330.81;;;20.66;57.65
75699;BME280;64313;51.018;13.742;2023-09-19T09:15:42;99335.38;;;20.71;57.77
75699;BME280;64313;51.018;13.742;2023-09-19T09:18:10;99331.59;;;20.77;57.45
75699;BME280;64313;51.018;13.742;2023-09-19T09:20:35;99322.88;;;20.80;56.20
75699;BME280;64313;51.018;13.742;2023-09-19T09:23:01;99321.50;;;20.83;55.14
75699;BME280;64313;51.018;13.742;2023-09-19T09:25:48;99326.38;;;20.86;55.02
75699;BME280;64313;51.018;13.742;2023-09-19T09:28:24;99333.97;;;20.89;55.60
75699;BME280;64313;51.018;13.742;2023-09-19T09:30:50;99330.75;;;20.87;54.87
75699;BME280;64313;51.018;13.742;2023-09-19T09:33:16;99344.03;;;20.88;56.08
75699;BME280;64313;51.018;13.742;2023-09-19T09:38:22;99344.59;;;20.85;54.43
75699;BME280;64313;51.018;13.742;2023-09-19T09:40:53;99350.31;;;20.79;55.02
75699;BME280;64313;51.018;13.742;2023-09-19T09:43:28;99352.78;;;20.70;55.18
75699;BME280;64313;51.018;13.742;2023-09-19T09:48:44;99357.69;;;20.63;55.91
75699;BME280;64313;51.018;13.742;2023-09-19T09:51:29;99353.06;;;20.63;56.10
75699;BME280;64313;51.018;13.742;2023-09-19T09:54:10;99356.59;;;20.59;56.31
75699;BME280;64313;51.018;13.742;2023-09-19T09:56:58;99365.84;;;20.58;56.20
75699;BME280;64313;51.018;13.742;2023-09-19T09:59:47;99361.22;;;20.58;56.69
75699;BME280;64313;51.018;13.742;2023-09-19T10:02:18;99359.59;;;20.57;56.30
75699;BME280;64313;51.018;13.742;2023-09-19T10:04:53;99354.16;;;20.57;55.74
75699;BME280;64313;51.018;13.742;2023-09-19T10:07:29;99356.06;;;20.62;56.41
75699;BME280;64313;51.018;13.742;2023-09-19T10:10:01;99352.53;;;20.66;56.14
75699;BME280;64313;51.018;13.742;2023-09-19T10:12:31;99353.88;;;20.74;55.72
75699;BME280;64313;51.018;13.742;2023-09-19T10:14:59;99350.03;;;20.80;56.53
75699;BME280;64313;51.018;13.742;2023-09-19T10:17:26;99354.66;;;20.90;56.05
75699;BME280;64313;51.018;13.742;2023-09-19T10:19:56;99358.69;;;20.98;56.13
75699;BME280;64313;51.018;13.742;2023-09-19T10:22:23;99359.22;;;21.05;55.21
75699;BME280;64313;51.018;13.742;2023-09-19T10:24:53;99359.75;;;21.12;55.67
75699;BME280;64313;51.018;13.742;2023-09-19T10:27:19;99352.91;;;21.20;55.75
75699;BME280;64313;51.018;13.742;2023-09-19T10:29:49;99354.25;;;21.27;55.39
75699;BME280;64313;51.018;13.742;2023-09-19T10:32:19;99359.13;;;21.30;55.51
75699;BME280;64313;51.018;13.742;2023-09-19T10:34:47;99357.97;;;21.36;54.73
75699;BME280;64313;51.018;13.742;2023-09-19T10:37:18;99359.34;;;21.39;52.86
75699;BME280;64313;51.018;13.742;2023-09-19T10:39:49;99350.66;;;21.42;53.20
75699;BME280;64313;51.018;13.742;2023-09-19T10:42:18;99346.00;;;21.48;52.69
75699;BME280;64313;51.018;13.742;2023-09-19T10:44:45;99356.84;;;21.53;52.38
75699;BME280;64313;51.018;13.742;2023-09-19T10:47:12;99361.72;;;21.56;52.87
75699;BME280;64313;51.018;13.742;2023-09-19T10:49:46;99348.09;;;21.61;52.33
75699;BME280;64313;51.018;13.742;2023-09-19T10:52:14;99354.63;;;21.65;52.37
75699;BME280;64313;51.018;13.742;2023-09-19T10:54:48;99357.84;;;21.72;52.10
75699;BME280;64313;51.018;13.742;2023-09-19T10:57:25;99351.03;;;21.75;50.16
75699;BME280;64313;51.018;13.742;2023-09-19T11:00:08;99349.88;;;21.81;51.95
75699;BME280;64313;51.018;13.742;2023-09-19T11:05:40;99351.69;;;21.96;50.03
75699;BME280;64313;51.018;13.742;2023-09-19T11:08:09;99349.72;;;22.01;50.02
75699;BME280;64313;51.018;13.742;2023-09-19T11:10:48;99348.63;;;22.08;49.51
75699;BME280;64313;51.018;13.742;2023-09-19T11:13:27;99340.16;;;22.09;49.26
75699;BME280;64313;51.018;13.742;2023-09-19T11:18:50;99346.75;;;22.03;48.95
75699;BME280;64313;51.018;13.742;2023-09-19T11:26:42;99340.75;;;22.01;48.30
75699;BME280;64313;51.018;13.742;2023-09-19T11:29:27;99337.22;;;22.00;46.06
75699;BME280;64313;51.018;13.742;2023-09-19T11:31:55;99340.50;;;22.02;44.63
75699;BME280;64313;51.018;13.742;2023-09-19T11:40:10;99341.28;;;22.03;44.19
75699;BME280;64313;51.018;13.742;2023-09-19T11:42:47;99357.06;;;22.06;45.27
75699;BME280;64313;51.018;13.742;2023-09-19T11:48:23;99351.56;;;22.11;45.20
75699;BME280;64313;51.018;13.742;2023-09-19T11:50:51;99340.91;;;22.15;45.01
75699;BME280;64313;51.018;13.742;2023-09-19T11:53:18;99341.16;;;22.18;45.46
75699;BME280;64313;51.018;13.742;2023-09-19T11:55:45;99348.00;;;22.21;44.48
75699;BME280;64313;51.018;13.742;2023-09-19T11:58:12;99340.34;;;22.23;45.41
75699;BME280;64313;51.018;13.742;2023-09-19T12:00:39;99340.84;;;22.25;44.81
75699;BME280;64313;51.018;13.742;2023-09-19T12:03:10;99341.16;;;22.23;45.28
75699;BME280;64313;51.018;13.742;2023-09-19T12:05:36;99340.03;;;22.24;45.37
75699;BME280;64313;51.018;13.742;2023-09-19T12:08:03;99340.56;;;22.27;46.26
75699;BME280;64313;51.018;13.742;2023-09-19T12:10:30;99342.22;;;22.28;45.44
75699;BME280;64313;51.018;13.742;2023-09-19T12:12:55;99338.13;;;22.25;45.42
75699;BME280;64313;51.018;13.742;2023-09-19T12:15:28;99339.50;;;22.22;45.26
75699;BME280;64313;51.018;13.742;2023-09-19T12:17:59;99343.88;;;22.18;46.03
75699;BME280;64313;51.018;13.742;2023-09-19T12:20:40;99340.63;;;22.16;45.84
75699;BME280;64313;51.018;13.742;2023-09-19T12:23:13;99350.97;;;22.19;47.42
75699;BME280;64313;51.018;13.742;2023-09-19T12:25:42;99342.53;;;22.21;48.35
75699;BME280;64313;51.018;13.742;2023-09-19T12:28:13;99342.81;;;22.19;48.33
75699;BME280;64313;51.018;13.742;2023-09-19T12:30:39;99343.34;;;22.21;48.84
75699;BME280;64313;51.018;13.742;2023-09-19T12:33:18;99334.59;;;22.24;49.39
75699;BME280;64313;51.018;13.742;2023-09-19T12:35:51;99331.88;;;22.24;48.27
75699;BME280;64313;51.018;13.742;2023-09-19T12:38:27;99330.78;;;22.25;47.97
75699;BME280;64313;51.018;13.742;2023-09-19T12:41:01;99334.31;;;22.26;48.51
75699;BME280;64313;51.018;13.742;2023-09-19T12:43:29;99326.38;;;22.30;48.53
75699;BME280;64313;51.018;13.742;2023-09-19T12:45:57;99333.16;;;22.32;48.35
75699;BME280;64313;51.018;13.742;2023-09-19T12:48:25;99332.91;;;22.34;47.12
75699;BME280;64313;51.018;13.742;2023-09-19T12:53:25;99335.78;;;22.42;48.96
75699;BME280;64313;51.018;13.742;2023-09-19T12:55:58;99329.28;;;22.43;48.36
75699;BME280;64313;51.018;13.742;2023-09-19T12:58:24;99336.31;;;22.44;47.84
75699;BME280;64313;51.018;13.742;2023-09-19T13:00:50;99337.97;;;22.45;47.26
75699;BME280;64313;51.018;13.742;2023-09-19T13:03:29;99337.13;;;22.45;47.62
75699;BME280;64313;51.018;13.742;2023-09-19T13:06:03;99336.31;;;22.44;46.78
75699;BME280;64313;51.018;13.742;2023-09-19T13:08:39;99337.13;;;22.45;47.70
75699;BME280;64313;51.018;13.742;2023-09-19T13:11:16;99332.22;;;22.47;47.48
75699;BME280;64313;51.018;13.742;2023-09-19T13:13:48;99335.75;;;22.47;47.53
75699;BME280;64313;51.018;13.742;2023-09-19T13:16:17;99333.56;;;22.50;47.38
75699;BME280;64313;51.018;13.742;2023-09-19T13:18:51;99334.09;;;22.52;47.16
75699;BME280;64313;51.018;13.742;2023-09-19T13:21:30;99327.81;;;22.51;47.21
75699;BME280;64313;51.018;13.742;2023-09-19T13:24:19;99333.28;;;22.51;48.29
75699;BME280;64313;51.018;13.742;2023-09-19T13:26:44;99329.22;;;22.49;46.86
75699;BME280;64313;51.018;13.742;2023-09-19T13:29:11;99329.22;;;22.49;47.44
75699;BME280;64313;51.018;13.742;2023-09-19T13:31:36;99329.50;;;22.47;46.96
75699;BME280;64313;51.018;13.742;2023-09-19T13:34:07;99321.63;;;22.45;46.90
75699;BME280;64313;51.018;13.742;2023-09-19T13:36:32;99326.53;;;22.43;47.16
75699;BME280;64313;51.018;13.742;2023-09-19T13:38:58;99324.69;;;22.39;45.97
75699;BME280;64313;51.018;13.742;2023-09-19T13:41:25;99321.94;;;22.39;46.41
75699;BME280;64313;51.018;13.742;2023-09-19T13:43:51;99323.56;;;22.40;46.10